createdAt,value
2018-04-17T00:01:27.957Z,101559.88
2018-04-17T00:03:58.642Z,101563.50
2018-04-17T00:06:30.499Z,101565.97
2018-04-17T00:09:02.500Z,101566.83
2018-04-17T00:11:35.485Z,101563.30
2018-04-17T00:14:08.275Z,101571.42
2018-04-17T00:16:40.278Z,101579.79
2018-04-17T00:19:13.272Z,101571.08
2018-04-17T00:21:45.597Z,101583.30
2018-04-17T00:24:16.414Z,101588.23
2018-04-17T00:26:48.525Z,101597.85
2018-04-17T00:29:20.492Z,101597.19
2018-04-17T00:31:52.535Z,101608.98
2018-04-17T00:34:24.482Z,101605.33
2018-04-17T00:36:56.525Z,101607.13
2018-04-17T00:42:14.548Z,101608.81
2018-04-17T00:44:47.637Z,101617.30
2018-04-17T00:47:18.436Z,101618.73
2018-04-17T00:49:50.115Z,101617.20
2018-04-17T00:52:23.261Z,101629.21
2018-04-17T00:54:56.242Z,101636.40
2018-04-17T00:57:28.248Z,101628.82
2018-04-17T01:00:00.224Z,101641.62
2018-04-17T01:04:56.537Z,101636.05
2018-04-17T01:07:28.474Z,101648.05
2018-04-17T01:10:00.479Z,101659.72
2018-04-17T01:12:32.254Z,101666.38
2018-04-17T01:15:04.228Z,101666.05
2018-04-17T01:17:36.241Z,101674.09
2018-04-17T01:20:09.567Z,101671.62
2018-04-17T01:22:40.480Z,101673.50
2018-04-17T01:25:12.583Z,101676.60
2018-04-17T01:27:43.119Z,101682.96
2018-04-17T01:30:15.588Z,101686.12
2018-04-17T01:32:46.497Z,101695.83
2018-04-17T01:35:20.305Z,101695.91
2018-04-17T01:37:53.534Z,101690.54
2018-04-17T01:40:24.482Z,101697.30
2018-04-17T01:42:56.781Z,101696.03
2018-04-17T01:45:28.940Z,101706.23
2018-04-17T01:48:01.474Z,101706.24
2018-04-17T01:50:33.499Z,101708.28
2018-04-17T01:53:06.290Z,101711.98
2018-04-17T01:55:39.329Z,101714.27
2018-04-17T01:58:11.289Z,101715.30
2018-04-17T02:04:41.231Z,101720.12
2018-04-17T02:07:13.283Z,101724.23
2018-04-17T02:09:45.267Z,101727.64
2018-04-17T02:12:17.256Z,101733.67
2018-04-17T02:14:49.272Z,101734.19
2018-04-17T02:17:25.299Z,101739.20
2018-04-17T02:19:57.519Z,101742.23
2018-04-17T02:23:21.250Z,101750.19
2018-04-17T02:25:53.245Z,101751.23
2018-04-17T02:28:25.261Z,101760.80
2018-04-17T02:30:57.705Z,101765.58
2018-04-17T02:33:29.569Z,101770.28
2018-04-17T02:36:01.491Z,101768.27
2018-04-17T02:38:33.597Z,101774.37
2018-04-17T02:41:05.480Z,101782.14
2018-04-17T02:43:37.482Z,101780.25
2018-04-17T02:46:10.692Z,101784.05
2018-04-17T02:48:42.564Z,101791.03
2018-04-17T02:53:48.430Z,101789.30
2018-04-17T03:00:52.252Z,101805.42
2018-04-17T03:03:24.300Z,101806.39
2018-04-17T03:05:56.497Z,101813.41
2018-04-17T03:08:31.291Z,101808.42
2018-04-17T03:11:04.314Z,101818.83
2018-04-17T03:17:32.858Z,101823.07
2018-04-17T03:20:05.274Z,101834.38
2018-04-17T03:22:38.546Z,101831.36
2018-04-17T03:25:10.544Z,101832.14
2018-04-17T03:27:43.256Z,101836.91
2018-04-17T03:30:16.470Z,101840.66
2018-04-17T03:32:48.474Z,101843.93
2018-04-17T03:35:20.559Z,101841.52
2018-04-17T03:37:51.493Z,101843.97
2018-04-17T03:40:23.250Z,101849.57
2018-04-17T03:42:56.298Z,101858.09
2018-04-17T03:45:28.976Z,101861.97
2018-04-17T03:48:00.575Z,101867.06
2018-04-17T03:50:32.101Z,101867.61
2018-04-17T03:53:04.280Z,101869.52
2018-04-17T03:55:36.232Z,101869.63
2018-04-17T03:58:09.519Z,101883.45
2018-04-17T04:00:41.488Z,101881.72
2018-04-17T04:03:13.579Z,101886.60
2018-04-17T04:05:48.867Z,101886.44
2018-04-17T04:11:12.588Z,101891.68
2018-04-17T04:13:43.500Z,101896.05
2018-04-17T04:16:27.292Z,101890.95
2018-04-17T04:19:10.623Z,101902.58
2018-04-17T04:21:55.717Z,101902.35
2018-04-17T04:24:40.088Z,101910.84
2018-04-17T04:27:13.251Z,101906.13
2018-04-17T04:29:45.594Z,101917.23
2018-04-17T04:32:17.499Z,101923.69
2018-04-17T04:34:49.265Z,101937.38
2018-04-17T04:37:22.253Z,101948.95
2018-04-17T04:39:54.545Z,101949.45
2018-04-17T04:42:27.246Z,101954.55
2018-04-17T04:44:59.277Z,101955.73
2018-04-17T04:47:31.494Z,101959.36
2018-04-17T04:50:03.499Z,101949.24
2018-04-17T04:52:37.255Z,101953.30
2018-04-17T04:55:09.262Z,101950.27
2018-04-17T04:57:41.656Z,101951.81
2018-04-17T05:00:13.517Z,101947.37
2018-04-17T05:02:45.603Z,101951.66
2018-04-17T05:05:18.254Z,101957.95
2018-04-17T05:07:52.114Z,101960.33
2018-04-17T05:10:25.560Z,101974.58
2018-04-17T05:12:56.108Z,101974.91
2018-04-17T05:17:20.117Z,101986.41
2018-04-17T05:22:34.624Z,101987.20
2018-04-17T05:25:06.140Z,101995.47
2018-04-17T05:27:39.515Z,101996.37
2018-04-17T05:30:11.612Z,101995.03
2018-04-17T05:32:43.358Z,102000.13
2018-04-17T05:35:16.502Z,102001.95
2018-04-17T05:37:48.612Z,102003.52
2018-04-17T05:40:19.498Z,102003.69
2018-04-17T05:42:52.297Z,102003.08
2018-04-17T05:45:25.263Z,102010.20
2018-04-17T05:47:58.278Z,102014.35
2018-04-17T05:53:10.262Z,102017.00
2018-04-17T05:55:43.277Z,102022.91
2018-04-17T05:58:15.595Z,102023.43
2018-04-17T06:01:21.920Z,102021.13
2018-04-17T06:03:53.589Z,102018.48
2018-04-17T06:06:24.490Z,102024.34
2018-04-17T06:08:57.595Z,102027.83
2018-04-17T06:11:29.486Z,102029.47
2018-04-17T06:14:01.490Z,102033.58
2018-04-17T06:16:33.289Z,102033.70
2018-04-17T06:19:05.267Z,102045.16
2018-04-17T06:23:38.499Z,102040.19
2018-04-17T06:26:55.102Z,102046.64
2018-04-17T06:29:27.304Z,102046.89
2018-04-17T06:31:59.284Z,102049.95
2018-04-17T06:34:31.513Z,102059.16
2018-04-17T06:37:04.965Z,102058.84
2018-04-17T06:39:36.595Z,102064.80
2018-04-17T06:42:07.465Z,102069.16
2018-04-17T06:44:39.277Z,102074.97
2018-04-17T06:47:12.257Z,102078.48
2018-04-17T06:49:44.243Z,102081.31
2018-04-17T06:52:17.222Z,102088.31
2018-04-17T06:54:50.492Z,102089.68
2018-04-17T06:57:22.276Z,102094.55
2018-04-17T06:59:54.262Z,102095.34
2018-04-17T07:02:26.851Z,102092.47
2018-04-17T07:04:59.268Z,102097.42
2018-04-17T07:07:31.531Z,102095.92
2018-04-17T07:10:04.276Z,102099.50
2018-04-17T07:12:36.551Z,102102.68
2018-04-17T07:15:08.571Z,102098.42
2018-04-17T07:17:42.282Z,102101.05
2018-04-17T07:20:15.503Z,102103.77
2018-04-17T07:22:48.506Z,102106.52
2018-04-17T07:25:22.266Z,102111.02
2018-04-17T07:27:55.527Z,102121.44
2018-04-17T07:30:27.516Z,102123.25
2018-04-17T07:32:59.373Z,102132.81
2018-04-17T07:35:31.518Z,102137.30
2018-04-17T07:38:03.523Z,102140.19
2018-04-17T07:40:37.808Z,102139.30
2018-04-17T07:43:09.639Z,102144.45
2018-04-17T07:45:40.366Z,102152.31
2018-04-17T07:48:27.508Z,102147.02
2018-04-17T07:50:59.529Z,102157.55
2018-04-17T07:53:32.767Z,102158.80
2018-04-17T07:56:06.286Z,102163.69
2018-04-17T07:58:40.403Z,102168.05
2018-04-17T08:01:14.516Z,102164.38
2018-04-17T08:03:47.990Z,102163.80
2018-04-17T08:06:20.641Z,102159.78
2018-04-17T08:08:54.661Z,102154.04
2018-04-17T08:11:28.549Z,102153.73
2018-04-17T08:14:00.578Z,102153.38
2018-04-17T08:16:34.539Z,102150.88
2018-04-17T08:19:07.564Z,102149.66
2018-04-17T08:21:40.544Z,102152.54
2018-04-17T08:24:49.295Z,102152.48
2018-04-17T08:27:22.238Z,102151.89
2018-04-17T08:29:55.270Z,102155.36
2018-04-17T08:32:28.278Z,102164.90
2018-04-17T08:35:01.592Z,102162.36
2018-04-17T08:37:34.597Z,102164.00
2018-04-17T08:40:06.506Z,102162.30
2018-04-17T08:42:40.099Z,102165.92
2018-04-17T08:45:14.213Z,102155.37
2018-04-17T08:47:47.517Z,102154.30
2018-04-17T08:50:20.567Z,102160.68
2018-04-17T08:52:52.641Z,102158.69
2018-04-17T08:55:24.503Z,102152.97
2018-04-17T08:57:58.497Z,102162.16
2018-04-17T09:00:31.510Z,102162.96
2018-04-17T09:03:04.262Z,102162.78
2018-04-17T09:05:38.247Z,102164.90
2018-04-17T09:08:12.265Z,102164.77
2018-04-17T09:10:46.272Z,102164.05
2018-04-17T09:13:18.590Z,102160.84
2018-04-17T09:15:52.222Z,102172.11
2018-04-17T09:18:25.484Z,102168.82
2018-04-17T09:20:59.588Z,102165.16
2018-04-17T09:23:33.261Z,102168.38
2018-04-17T09:26:06.216Z,102165.20
2018-04-17T09:28:39.227Z,102164.59
2018-04-17T09:31:12.234Z,102171.69
2018-04-17T09:33:45.277Z,102163.36
2018-04-17T09:36:18.213Z,102165.48
2018-04-17T09:38:51.280Z,102167.06
2018-04-17T09:41:24.521Z,102169.29
2018-04-17T09:43:57.538Z,102167.28
2018-04-17T09:46:31.262Z,102166.88
2018-04-17T09:49:04.222Z,102168.82
2018-04-17T09:51:37.922Z,102171.80
2018-04-17T09:54:11.532Z,102174.45
2018-04-17T09:56:44.554Z,102171.50
2018-04-17T09:59:16.125Z,102182.13
2018-04-17T10:01:49.535Z,102180.14
2018-04-17T10:04:21.463Z,102185.50
2018-04-17T10:06:53.236Z,102177.06
2018-04-17T10:09:26.649Z,102183.63
2018-04-17T10:12:00.271Z,102184.34
2018-04-17T10:14:33.635Z,102187.63
2018-04-17T10:18:59.512Z,102184.00
2018-04-17T10:21:32.348Z,102196.18
2018-04-17T10:24:05.512Z,102200.08
2018-04-17T10:26:38.504Z,102202.52
2018-04-17T10:29:12.254Z,102206.33
2018-04-17T10:31:45.253Z,102202.47
2018-04-17T10:34:19.265Z,102205.55
2018-04-17T10:36:52.511Z,102209.49
2018-04-17T10:39:26.246Z,102211.84
2018-04-17T10:42:00.246Z,102219.74
2018-04-17T10:44:32.671Z,102222.08
2018-04-17T10:47:06.620Z,102222.39
2018-04-17T10:49:39.670Z,102218.56
2018-04-17T10:52:11.641Z,102212.40
2018-04-17T10:54:45.638Z,102209.41
2018-04-17T10:57:18.143Z,102213.88
2018-04-17T10:59:51.666Z,102213.72
2018-04-17T11:04:24.700Z,102215.94
2018-04-17T11:06:57.588Z,102216.44
2018-04-17T11:09:30.414Z,102215.23
2018-04-17T11:12:04.611Z,102217.17
2018-04-17T11:14:38.834Z,102220.08
2018-04-17T11:17:11.744Z,102230.58
2018-04-17T11:19:44.757Z,102237.31
2018-04-17T11:24:24.895Z,102246.01
2018-04-17T11:26:57.709Z,102246.42
2018-04-17T11:29:32.748Z,102248.72
2018-04-17T11:32:05.604Z,102243.66
2018-04-17T11:34:38.609Z,102244.73
2018-04-17T11:37:10.684Z,102239.16
2018-04-17T11:39:43.686Z,102245.27
2018-04-17T11:42:16.570Z,102246.67
2018-04-17T11:44:49.356Z,102247.97
2018-04-17T11:47:23.545Z,102249.44
2018-04-17T11:49:57.912Z,102254.58
2018-04-17T11:52:30.658Z,102255.02
2018-04-17T11:55:02.901Z,102253.37
2018-04-17T11:57:34.780Z,102256.06
2018-04-17T12:00:06.731Z,102257.04
2018-04-17T12:02:38.713Z,102261.63
2018-04-17T12:05:12.770Z,102257.85
2018-04-17T12:07:45.403Z,102259.84
2018-04-17T12:10:18.937Z,102265.16
2018-04-17T12:12:51.818Z,102261.33
2018-04-17T12:15:25.040Z,102264.13
2018-04-17T12:17:59.227Z,102267.95
2018-04-17T12:20:33.162Z,102272.41
2018-04-17T12:23:07.289Z,102270.81
2018-04-17T12:25:41.921Z,102279.02
2018-04-17T12:28:13.883Z,102275.39
2018-04-17T12:30:47.591Z,102273.77
2018-04-17T12:33:20.646Z,102270.05
2018-04-17T12:35:52.833Z,102276.28
2018-04-17T12:38:26.646Z,102277.52
2018-04-17T12:40:59.685Z,102280.80
2018-04-17T12:43:32.668Z,102277.31
2018-04-17T12:46:05.225Z,102274.86
2018-04-17T12:48:39.551Z,102269.18
2018-04-17T12:51:13.598Z,102275.84
2018-04-17T12:53:47.677Z,102276.19
2018-04-17T12:56:20.710Z,102275.98
2018-04-17T12:58:53.832Z,102275.41
2018-04-17T13:01:25.841Z,102274.98
2018-04-17T13:03:58.181Z,102273.15
2018-04-17T13:06:32.511Z,102281.16
2018-04-17T13:09:07.728Z,102282.06
2018-04-17T13:11:40.638Z,102285.39
2018-04-17T13:14:12.617Z,102287.20
2018-04-17T13:16:46.564Z,102284.92
2018-04-17T13:22:07.747Z,102293.35
2018-04-17T13:24:40.737Z,102296.92
2018-04-17T13:27:15.645Z,102296.89
2018-04-17T13:29:47.669Z,102301.50
2018-04-17T13:32:19.885Z,102308.84
2018-04-17T13:34:52.706Z,102301.69
2018-04-17T13:37:25.704Z,102308.49
2018-04-17T13:39:59.928Z,102304.37
2018-04-17T13:42:32.689Z,102310.02
2018-04-17T13:45:06.697Z,102314.67
2018-04-17T13:47:39.842Z,102319.91
2018-04-17T13:50:13.689Z,102319.75
2018-04-17T13:52:48.622Z,102329.91
2018-04-17T13:55:22.664Z,102323.91
2018-04-17T13:57:55.899Z,102326.42
2018-04-17T14:00:29.694Z,102328.70
2018-04-17T14:03:03.704Z,102336.52
2018-04-17T14:05:36.039Z,102335.19
2018-04-17T14:08:09.784Z,102336.14
2018-04-17T14:10:42.694Z,102337.64
2018-04-17T14:13:15.860Z,102346.56
2018-04-17T14:15:50.625Z,102347.30
2018-04-17T14:18:24.826Z,102346.64
2018-04-17T14:20:57.896Z,102348.64
2018-04-17T14:23:30.676Z,102351.38
2018-04-17T14:26:03.062Z,102352.80
2018-04-17T14:28:36.855Z,102356.58
2018-04-17T14:31:09.410Z,102358.22
2018-04-17T14:33:43.505Z,102372.65
2018-04-17T14:36:17.650Z,102379.61
2018-04-17T14:38:50.855Z,102376.72
2018-04-17T14:41:23.670Z,102383.67
2018-04-17T14:43:56.783Z,102384.67
2018-04-17T14:46:29.815Z,102387.59
2018-04-17T14:49:02.804Z,102393.17
2018-04-17T14:51:35.630Z,102396.03
2018-04-17T14:54:09.271Z,102401.33
2018-04-17T14:56:43.851Z,102412.93
2018-04-17T14:59:15.575Z,102412.86
2018-04-17T15:01:50.074Z,102416.84
2018-04-17T15:04:23.493Z,102423.50
2018-04-17T15:06:56.634Z,102425.72
2018-04-17T15:09:30.803Z,102431.28
2018-04-17T15:12:02.509Z,102435.44
2018-04-17T15:14:34.510Z,102440.77
2018-04-17T15:17:07.559Z,102444.09
2018-04-17T15:19:40.581Z,102441.89
2018-04-17T15:22:13.509Z,102445.71
2018-04-17T15:24:46.564Z,102445.92
2018-04-17T15:27:19.310Z,102453.21
2018-04-17T15:29:52.338Z,102449.81
2018-04-17T15:34:05.268Z,102445.80
2018-04-17T15:36:38.603Z,102448.53
2018-04-17T15:39:12.576Z,102447.16
2018-04-17T15:41:46.430Z,102441.38
2018-04-17T15:44:18.491Z,102438.14
2018-04-17T15:46:50.504Z,102431.97
2018-04-17T15:49:23.826Z,102436.06
2018-04-17T15:51:56.305Z,102442.22
2018-04-17T15:54:28.281Z,102450.95
2018-04-17T15:57:00.257Z,102448.72
2018-04-17T15:59:33.613Z,102455.86
2018-04-17T16:02:04.497Z,102458.66
2018-04-17T16:04:36.288Z,102452.98
2018-04-17T16:07:08.531Z,102449.34
2018-04-17T16:09:40.614Z,102443.25
2018-04-17T16:12:12.618Z,102444.52
2018-04-17T16:14:43.181Z,102443.05
2018-04-17T16:17:16.309Z,102437.83
2018-04-17T16:19:49.275Z,102445.98
2018-04-17T16:23:33.512Z,102446.13
2018-04-17T16:26:05.517Z,102436.64
2018-04-17T16:28:37.621Z,102441.39
2018-04-17T16:31:09.397Z,102443.23
2018-04-17T16:33:41.648Z,102443.28
2018-04-17T16:36:14.836Z,102445.08
2018-04-17T16:38:48.083Z,102451.53
2018-04-17T16:43:22.098Z,102458.52
2018-04-17T16:45:55.517Z,102456.97
2018-04-17T16:48:28.518Z,102459.90
2018-04-17T16:51:00.605Z,102466.28
2018-04-17T16:53:34.720Z,102470.95
2018-04-17T16:56:08.624Z,102468.52
2018-04-17T17:00:46.073Z,102470.39
2018-04-17T17:03:19.639Z,102471.09
2018-04-17T17:05:52.295Z,102472.11
2018-04-17T17:08:25.401Z,102469.51
2018-04-17T17:10:58.242Z,102478.30
2018-04-17T17:13:31.306Z,102476.52
2018-04-17T17:16:04.305Z,102477.92
2018-04-17T17:18:36.771Z,102482.28
2018-04-17T17:21:10.244Z,102486.41
2018-04-17T17:23:42.281Z,102479.76
2018-04-17T17:28:53.226Z,102484.37
2018-04-17T17:31:25.270Z,102481.45
2018-04-17T17:37:27.583Z,102478.64
2018-04-17T17:39:58.089Z,102491.05
2018-04-17T17:42:30.316Z,102488.55
2018-04-17T17:45:02.247Z,102491.47
2018-04-17T17:49:42.120Z,102492.54
2018-04-17T17:52:14.285Z,102498.75
2018-04-17T17:54:46.225Z,102497.11
2018-04-17T17:57:18.272Z,102496.09
2018-04-17T17:59:50.265Z,102497.75
2018-04-17T18:02:46.540Z,102511.30
2018-04-17T18:05:18.293Z,102514.69
2018-04-17T18:07:50.303Z,102512.38
2018-04-17T18:10:22.526Z,102508.89
2018-04-17T18:12:54.513Z,102512.16
2018-04-17T18:15:26.266Z,102512.02
2018-04-17T18:18:01.352Z,102508.89
2018-04-17T18:20:33.436Z,102501.81
2018-04-17T18:25:13.343Z,102501.77
2018-04-17T18:27:45.496Z,102489.18
2018-04-17T18:30:17.588Z,102493.77
2018-04-17T18:32:48.499Z,102489.02
2018-04-17T18:35:20.420Z,102494.47
2018-04-17T18:37:52.486Z,102490.02
2018-04-17T18:40:24.503Z,102491.52
2018-04-17T18:42:56.492Z,102487.37
2018-04-17T18:47:09.285Z,102493.46
2018-04-17T18:49:41.436Z,102485.94
2018-04-17T18:52:13.509Z,102480.20
2018-04-17T18:54:45.585Z,102480.61
2018-04-17T18:58:08.083Z,102472.54
2018-04-17T19:00:40.336Z,102471.69
2018-04-17T19:03:12.284Z,102465.75
2018-04-17T19:05:44.570Z,102467.32
2018-04-17T19:08:15.090Z,102458.56
2018-04-17T19:10:47.272Z,102454.79
2018-04-17T19:13:19.281Z,102460.99
2018-04-17T19:15:52.289Z,102455.70
2018-04-17T19:18:24.595Z,102458.25
2018-04-17T19:20:56.521Z,102455.01
2018-04-17T19:23:30.505Z,102454.75
2018-04-17T19:26:03.563Z,102454.44
2018-04-17T19:28:35.514Z,102454.73
2018-04-17T19:31:09.277Z,102449.70
2018-04-17T19:33:42.244Z,102453.44
2018-04-17T19:36:15.586Z,102453.95
2018-04-17T19:38:47.399Z,102442.74
2018-04-17T19:41:21.110Z,102438.39
2018-04-17T19:43:54.523Z,102435.30
2018-04-17T19:46:27.512Z,102437.43
2018-04-17T19:49:01.281Z,102432.60
2018-04-17T19:51:33.590Z,102432.84
2018-04-17T19:54:05.491Z,102430.52
2018-04-17T19:56:38.538Z,102415.20
2018-04-17T19:59:10.549Z,102415.78
2018-04-17T20:01:44.348Z,102413.30
2018-04-17T20:04:16.125Z,102406.79
2018-04-17T20:06:49.536Z,102413.40
2018-04-17T20:09:22.583Z,102409.05
2018-04-17T20:11:55.565Z,102402.80
2018-04-17T20:14:28.549Z,102399.91
2018-04-17T20:17:00.526Z,102394.96
2018-04-17T20:19:33.547Z,102392.80
2018-04-17T20:22:05.544Z,102388.50
2018-04-17T20:24:38.646Z,102383.44
2018-04-17T20:27:10.598Z,102378.73
2018-04-17T20:29:44.645Z,102374.80
2018-04-17T20:32:18.654Z,102371.70
2018-04-17T20:34:51.633Z,102371.02
2018-04-17T20:37:24.673Z,102361.99
2018-04-17T20:39:57.660Z,102357.09
2018-04-17T20:42:29.582Z,102360.47
2018-04-17T20:45:02.665Z,102367.05
2018-04-17T20:47:34.410Z,102366.96
2018-04-17T20:50:07.557Z,102358.98
2018-04-17T20:52:40.618Z,102361.27
2018-04-17T20:55:14.024Z,102351.95
2018-04-17T20:57:47.289Z,102350.35
2018-04-17T21:00:20.554Z,102355.91
2018-04-17T21:02:53.494Z,102350.41
2018-04-17T21:08:09.493Z,102353.61
2018-04-17T21:10:43.120Z,102351.63
2018-04-17T21:13:16.278Z,102352.47
2018-04-17T21:15:49.269Z,102348.73
2018-04-17T21:18:22.518Z,102346.29
2018-04-17T21:20:56.286Z,102353.14
2018-04-17T21:23:29.490Z,102349.11
2018-04-17T21:26:03.255Z,102341.05
2018-04-17T21:28:35.955Z,102338.97
2018-04-17T21:31:09.507Z,102345.17
2018-04-17T21:33:42.104Z,102341.59
2018-04-17T21:36:15.246Z,102340.84
2018-04-17T21:38:48.554Z,102345.69
2018-04-17T21:41:21.406Z,102336.87
2018-04-17T21:43:54.548Z,102335.36
2018-04-17T21:46:27.616Z,102328.78
2018-04-17T21:49:01.123Z,102329.28
2018-04-17T21:51:34.624Z,102328.17
2018-04-17T21:54:08.224Z,102322.53
2018-04-17T21:56:41.517Z,102318.73
2018-04-17T21:59:14.638Z,102310.38
2018-04-17T22:01:47.608Z,102311.00
2018-04-17T22:04:19.647Z,102306.19
2018-04-17T22:06:51.515Z,102297.47
2018-04-17T22:09:24.718Z,102294.13
2018-04-17T22:11:56.569Z,102291.77
2018-04-17T22:14:29.601Z,102288.34
2018-04-17T22:17:03.283Z,102287.10
2018-04-17T22:19:36.594Z,102281.58
2018-04-17T22:22:09.426Z,102274.35
2018-04-17T22:24:42.663Z,102277.57
2018-04-17T22:27:14.702Z,102273.66
2018-04-17T22:29:53.286Z,102268.68
2018-04-17T22:32:25.511Z,102254.50
2018-04-17T22:34:57.519Z,102250.21
2018-04-17T22:37:30.994Z,102255.59
2018-04-17T22:47:10.274Z,102254.58
2018-04-17T22:49:43.560Z,102242.77
2018-04-17T22:52:15.526Z,102245.09
2018-04-17T22:54:48.619Z,102237.97
2018-04-17T22:57:22.627Z,102232.48
2018-04-17T22:59:53.636Z,102217.06
2018-04-17T23:02:24.631Z,102217.66
2018-04-17T23:04:55.580Z,102217.13
2018-04-17T23:07:29.635Z,102208.42
2018-04-17T23:10:00.587Z,102208.33
2018-04-17T23:14:20.703Z,102205.09
2018-04-17T23:16:51.617Z,102194.95
2018-04-17T23:19:22.586Z,102190.58
2018-04-17T23:24:46.282Z,102189.66
2018-04-17T23:27:22.647Z,102188.41
2018-04-17T23:29:54.546Z,102179.70
2018-04-17T23:33:45.614Z,102171.38
2018-04-17T23:36:18.090Z,102173.83
2018-04-17T23:38:52.924Z,102172.86
2018-04-17T23:41:25.915Z,102164.10
2018-04-17T23:43:58.131Z,102156.30
2018-04-17T23:46:30.501Z,102158.00
2018-04-17T23:49:03.665Z,102163.08
2018-04-17T23:51:34.581Z,102151.95
2018-04-17T23:54:05.567Z,102156.53
2018-04-17T23:56:36.551Z,102161.26
2018-04-17T23:59:10.494Z,102152.98
